Time;durP1;ratioP1;P1;durP2;ratioP2;P2;SDS_P1;SDS_P2;PMS_P1;PMS_P2;Temp;Humidity;BMP_temperature;BMP_pressure;BME280_temperature;BME280_humidity;BME280_pressure;Samples;Min_cycle;Max_cycle;Signal;HPM_P1;HPM_P2
2021/03/07 00:01:21;;;;;;;16.60;12.73;;;0.40;95.70;;;;;;5035618;28;20299;-40
2021/03/07 00:03:48;;;;;;;16.02;12.23;;;0.30;95.80;;;;;;5035177;28;20232;-40
2021/03/07 00:06:15;;;;;;;14.02;11.05;;;0.30;95.90;;;;;;5035112;28;20232;-40
2021/03/07 00:08:43;;;;;;;13.20;11.25;;;0.30;96.00;;;;;;5034769;28;20295;-39
2021/03/07 00:11:21;;;;;;;15.45;11.50;;;0.20;96.00;;;;;;5035021;28;20630;-40
2021/03/07 00:13:48;;;;;;;11.88;10.57;;;0.20;96.10;;;;;;5034737;28;20236;-39
2021/03/07 00:16:15;;;;;;;12.40;10.30;;;0.20;96.20;;;;;;5034604;28;20296;-41
2021/03/07 00:18:42;;;;;;;13.00;10.82;;;0.10;96.20;;;;;;5034844;28;20209;-41
2021/03/07 00:21:09;;;;;;;13.80;12.00;;;0.10;96.30;;;;;;5034525;28;20219;-41
2021/03/07 00:23:36;;;;;;;13.93;11.90;;;0.10;96.40;;;;;;5034555;28;20283;-41
2021/03/07 00:26:04;;;;;;;13.85;12.40;;;0.10;96.50;;;;;;5034667;28;20295;-40
2021/03/07 00:28:31;;;;;;;13.43;10.80;;;0.00;96.50;;;;;;5034334;28;20213;-41
2021/03/07 00:30:58;;;;;;;19.75;12.43;;;0.00;96.50;;;;;;5034729;28;20575;-41
2021/03/07 00:33:26;;;;;;;15.38;11.50;;;0.00;96.60;;;;;;5034442;28;20204;-41
2021/03/07 00:35:53;;;;;;;15.98;11.13;;;0.00;96.60;;;;;;5034271;28;20244;-41
2021/03/07 00:38:21;;;;;;;15.55;11.95;;;0.00;96.70;;;;;;5034259;28;20215;-40
2021/03/07 00:40:48;;;;;;;15.30;11.43;;;0.00;96.70;;;;;;5034318;28;20644;-40
2021/03/07 00:43:15;;;;;;;16.38;11.13;;;0.00;96.70;;;;;;5033942;28;20717;-41
2021/03/07 00:45:42;;;;;;;16.67;11.57;;;0.00;96.80;;;;;;5034246;28;20295;-40
2021/03/07 00:48:09;;;;;;;17.23;10.95;;;0.00;96.80;;;;;;5033367;28;20588;-41
2021/03/07 00:50:37;;;;;;;17.27;11.90;;;0.00;96.80;;;;;;5034094;28;20217;-41
2021/03/07 00:53:04;;;;;;;11.65;10.45;;;0.00;96.80;;;;;;5034110;28;20205;-41
2021/03/07 00:55:30;;;;;;;16.15;11.25;;;0.00;96.80;;;;;;5033943;28;20291;-41
2021/03/07 00:57:57;;;;;;;12.82;10.57;;;0.00;96.80;;;;;;5033874;28;20213;-40
2021/03/07 01:00:27;;;;;;;12.52;10.80;;;-0.10;96.80;;;;;;5034379;28;20295;-40
2021/03/07 01:02:55;;;;;;;13.05;9.55;;;-0.10;97.20;;;;;;5033454;28;20256;-41
2021/03/07 01:05:23;;;;;;;19.17;11.23;;;-0.10;97.00;;;;;;5033878;28;20216;-40
2021/03/07 01:07:50;;;;;;;13.90;9.80;;;-0.10;97.00;;;;;;5034870;28;20683;-40
2021/03/07 01:10:20;;;;;;;13.23;10.43;;;-0.10;97.10;;;;;;5033348;28;20383;-41
2021/03/07 01:12:48;;;;;;;13.07;9.48;;;0.00;96.90;;;;;;5033830;28;20213;-40
2021/03/07 01:15:17;;;;;;;11.18;9.25;;;0.00;96.90;;;;;;5033619;28;20205;-40
2021/03/07 01:17:44;;;;;;;13.32;10.20;;;-0.10;96.90;;;;;;5033345;28;20300;-40
2021/03/07 01:20:16;;;;;;;12.73;10.10;;;-0.10;96.90;;;;;;5033481;28;20209;-40
2021/03/07 01:22:52;;;;;;;12.00;8.73;;;-0.10;97.00;;;;;;5033227;28;20718;-41
2021/03/07 01:25:20;;;;;;;9.88;8.77;;;-0.10;97.00;;;;;;5033430;28;20224;-41
2021/03/07 01:27:48;;;;;;;13.50;9.60;;;-0.20;97.00;;;;;;5033538;28;20221;-41
2021/03/07 01:30:17;;;;;;;13.30;10.35;;;-0.20;97.10;;;;;;5033217;28;20631;-41
2021/03/07 01:32:44;;;;;;;11.95;8.75;;;-0.20;97.20;;;;;;5033317;28;20212;-40
2021/03/07 01:35:13;;;;;;;11.90;9.85;;;-0.30;97.20;;;;;;5033224;28;20209;-41
2021/03/07 01:37:40;;;;;;;14.13;9.68;;;-0.30;97.30;;;;;;5033235;28;20216;-40
2021/03/07 01:40:10;;;;;;;11.67;10.47;;;-0.30;97.30;;;;;;5033067;28;20236;-41
2021/03/07 01:42:42;;;;;;;13.20;10.02;;;-0.30;97.40;;;;;;5033290;28;20240;-40
2021/03/07 01:45:09;;;;;;;15.13;10.53;;;-0.30;97.50;;;;;;5033067;28;20314;-40
2021/03/07 01:47:38;;;;;;;14.68;10.15;;;-0.30;97.60;;;;;;5033007;28;20706;-40
2021/03/07 01:50:07;;;;;;;11.27;9.52;;;-0.30;97.60;;;;;;5032891;28;20215;-40
2021/03/07 01:52:34;;;;;;;11.63;10.23;;;-0.30;97.60;;;;;;5033082;28;20645;-40
2021/03/07 01:55:01;;;;;;;12.48;9.20;;;-0.30;97.50;;;;;;5032974;28;20659;-40
2021/03/07 01:57:29;;;;;;;11.80;9.82;;;-0.30;97.50;;;;;;5032972;28;20208;-41
2021/03/07 01:59:59;;;;;;;13.82;9.85;;;-0.40;97.50;;;;;;5031773;28;20251;-41
2021/03/07 02:02:26;;;;;;;12.07;9.88;;;-0.40;97.60;;;;;;5032438;28;20295;-40
2021/03/07 02:04:53;;;;;;;12.20;10.20;;;-0.40;97.80;;;;;;5032808;28;20318;-40
2021/03/07 02:07:21;;;;;;;13.60;10.55;;;-0.50;97.90;;;;;;5032458;28;20303;-40
2021/03/07 02:09:50;;;;;;;13.57;9.65;;;-0.50;98.00;;;;;;5032107;28;20208;-41
2021/03/07 02:12:19;;;;;;;13.80;9.63;;;-0.50;98.00;;;;;;5032573;28;20213;-40
2021/03/07 02:14:49;;;;;;;12.20;10.32;;;-0.50;98.00;;;;;;5032289;28;20204;-40
2021/03/07 02:17:16;;;;;;;14.85;9.90;;;-0.40;98.10;;;;;;5032512;28;20212;-39
2021/03/07 02:19:44;;;;;;;15.07;10.52;;;-0.40;98.00;;;;;;5032416;28;20211;-40
2021/03/07 02:22:17;;;;;;;15.40;10.18;;;-0.40;97.90;;;;;;5032286;28;20757;-41
2021/03/07 02:24:45;;;;;;;12.07;9.70;;;-0.50;98.00;;;;;;5032201;28;20256;-40
2021/03/07 02:27:12;;;;;;;11.32;9.35;;;-0.60;98.10;;;;;;5032107;28;20258;-40
2021/03/07 02:29:39;;;;;;;12.48;9.88;;;-0.60;98.20;;;;;;5032549;28;20357;-42
2021/03/07 02:32:11;;;;;;;11.85;9.75;;;-0.60;98.30;;;;;;5032508;28;20649;-42
2021/03/07 02:34:42;;;;;;;13.65;9.85;;;-0.60;98.30;;;;;;5032419;28;20217;-42
2021/03/07 02:37:12;;;;;;;11.25;9.48;;;-0.60;98.40;;;;;;5032423;28;20240;-42
2021/03/07 02:39:41;;;;;;;14.10;10.23;;;-0.60;98.40;;;;;;5032266;28;20304;-42
2021/03/07 02:42:14;;;;;;;11.65;10.23;;;-0.60;98.50;;;;;;5032320;28;20212;-41
2021/03/07 02:44:47;;;;;;;12.73;10.57;;;-0.70;98.60;;;;;;5032220;28;20316;-41
2021/03/07 02:47:16;;;;;;;12.25;10.93;;;-0.70;98.70;;;;;;5031939;28;20741;-43
2021/03/07 02:49:43;;;;;;;18.88;11.30;;;-0.70;98.70;;;;;;5031828;28;20213;-41
2021/03/07 02:52:11;;;;;;;14.40;10.60;;;-0.70;98.80;;;;;;5031874;28;20212;-41
2021/03/07 02:54:39;;;;;;;16.15;12.07;;;-0.80;98.90;;;;;;5031905;28;20335;-41
2021/03/07 02:57:07;;;;;;;12.57;11.05;;;-0.70;99.10;;;;;;5032064;28;20289;-43
2021/03/07 02:59:38;;;;;;;15.40;11.25;;;-0.70;99.00;;;;;;5032100;28;20218;-42
2021/03/07 03:02:06;;;;;;;13.70;10.35;;;-0.70;99.10;;;;;;5031997;28;20335;-42
2021/03/07 03:04:34;;;;;;;12.55;10.15;;;-0.70;99.00;;;;;;5031650;28;20702;-42
2021/03/07 03:07:02;;;;;;;14.35;10.65;;;-0.70;99.00;;;;;;5031697;28;20597;-41
2021/03/07 03:09:32;;;;;;;13.90;10.88;;;-0.60;98.90;;;;;;5031630;28;20643;-43
2021/03/07 03:12:00;;;;;;;12.57;10.43;;;-0.60;98.80;;;;;;5031496;28;20240;-42
2021/03/07 03:14:27;;;;;;;13.45;10.48;;;-0.60;98.80;;;;;;5031965;28;20684;-41
2021/03/07 03:16:58;;;;;;;15.18;11.32;;;-0.60;98.90;;;;;;5031896;28;20208;-42
2021/03/07 03:19:27;;;;;;;14.02;10.70;;;-0.60;98.80;;;;;;5031751;28;20209;-39
2021/03/07 03:21:54;;;;;;;12.85;9.32;;;-0.50;98.80;;;;;;5031800;28;20354;-41
2021/03/07 03:24:22;;;;;;;14.07;9.18;;;-0.50;98.70;;;;;;5031595;28;20604;-39
2021/03/07 03:26:50;;;;;;;11.02;9.23;;;-0.60;98.60;;;;;;5031600;28;20679;-40
2021/03/07 03:29:17;;;;;;;11.82;9.25;;;-0.60;98.60;;;;;;5031733;28;20299;-40
2021/03/07 03:31:44;;;;;;;11.55;9.48;;;-0.60;98.70;;;;;;5031758;28;20303;-42
2021/03/07 03:34:12;;;;;;;11.57;9.60;;;-0.60;99.10;;;;;;5031628;28;20208;-40
2021/03/07 03:36:42;;;;;;;11.13;9.30;;;-0.60;98.70;;;;;;5031898;28;20626;-40
2021/03/07 03:39:10;;;;;;;11.13;8.93;;;-0.70;98.70;;;;;;5031772;28;20209;-40
2021/03/07 03:41:38;;;;;;;11.18;8.80;;;-0.70;98.80;;;;;;5031797;28;20219;-40
2021/03/07 03:44:10;;;;;;;9.52;8.40;;;-0.70;98.80;;;;;;5031562;28;20312;-40
2021/03/07 03:46:40;;;;;;;10.85;8.45;;;-0.70;98.80;;;;;;5031543;28;20579;-40
2021/03/07 03:49:18;;;;;;;10.07;8.50;;;-0.70;98.90;;;;;;5031634;28;20213;-40
2021/03/07 03:51:46;;;;;;;10.13;8.82;;;-0.70;99.20;;;;;;5031719;28;20294;-40
2021/03/07 03:54:18;;;;;;;9.15;8.25;;;-0.70;98.90;;;;;;5031536;28;20572;-41
2021/03/07 03:56:48;;;;;;;11.75;9.00;;;-0.70;98.90;;;;;;5031559;28;20420;-40
2021/03/07 03:59:18;;;;;;;12.40;9.23;;;-0.70;98.90;;;;;;5031469;28;20671;-40
2021/03/07 04:01:47;;;;;;;11.43;8.60;;;-0.60;99.00;;;;;;5031263;28;20282;-38
2021/03/07 04:04:17;;;;;;;10.50;8.98;;;-0.70;98.90;;;;;;5031347;28;20225;-40
2021/03/07 04:06:46;;;;;;;9.95;8.20;;;-0.70;99.00;;;;;;5031408;28;20684;-40
2021/03/07 04:09:13;;;;;;;11.63;9.30;;;-0.80;99.00;;;;;;5031374;28;20284;-40
2021/03/07 04:11:40;;;;;;;11.15;9.48;;;-0.80;99.20;;;;;;5031097;28;20631;-40
2021/03/07 04:14:17;;;;;;;14.17;11.73;;;-0.80;99.20;;;;;;5031290;28;20204;-40
2021/03/07 04:16:46;;;;;;;15.75;11.40;;;-0.80;99.30;;;;;;5031365;28;20216;-40
2021/03/07 04:19:13;;;;;;;11.32;9.95;;;-0.90;99.30;;;;;;5031253;28;20213;-40
2021/03/07 04:21:43;;;;;;;10.27;8.68;;;-0.80;99.30;;;;;;5031175;28;20292;-40
2021/03/07 04:24:11;;;;;;;12.48;9.05;;;-0.80;99.30;;;;;;5033279;28;20323;-40
2021/03/07 04:26:38;;;;;;;9.73;8.52;;;-0.70;99.30;;;;;;5034581;28;20219;-40
2021/03/07 04:29:05;;;;;;;10.18;9.15;;;-0.60;99.10;;;;;;5034538;28;20213;-40
2021/03/07 04:31:33;;;;;;;9.85;8.85;;;-0.70;99.00;;;;;;5034908;28;20307;-41
2021/03/07 04:34:01;;;;;;;12.82;8.77;;;-0.70;99.10;;;;;;5034681;28;20300;-41
2021/03/07 04:36:28;;;;;;;9.85;8.82;;;-0.80;99.20;;;;;;5034519;28;20209;-40
2021/03/07 04:38:56;;;;;;;10.75;9.63;;;-0.80;99.20;;;;;;5034408;28;20248;-41
2021/03/07 04:41:23;;;;;;;10.38;9.18;;;-0.80;99.30;;;;;;5034756;28;20212;-40
2021/03/07 04:43:52;;;;;;;11.85;8.90;;;-0.70;99.30;;;;;;5034422;28;20278;-41
2021/03/07 04:46:20;;;;;;;9.97;8.87;;;-0.60;99.20;;;;;;5034424;28;20316;-41
2021/03/07 04:48:47;;;;;;;9.82;8.52;;;-0.60;99.10;;;;;;5034530;28;20239;-40
2021/03/07 04:51:14;;;;;;;12.35;8.85;;;-0.60;98.90;;;;;;5034139;28;20270;-41
2021/03/07 04:53:42;;;;;;;11.10;8.63;;;-0.60;99.00;;;;;;5034293;28;20300;-40
2021/03/07 04:56:09;;;;;;;11.55;9.13;;;-0.70;99.00;;;;;;5034228;28;20553;-40
2021/03/07 04:58:36;;;;;;;11.85;9.00;;;-0.70;99.10;;;;;;5034351;28;20208;-41
2021/03/07 05:01:05;;;;;;;10.77;9.32;;;-0.70;99.10;;;;;;5034103;28;20247;-41
2021/03/07 05:03:32;;;;;;;10.30;8.70;;;-0.70;99.00;;;;;;5033574;28;20352;-40
2021/03/07 05:06:00;;;;;;;11.32;9.13;;;-0.70;99.00;;;;;;5033625;28;20702;-41
2021/03/07 05:08:27;;;;;;;10.00;9.00;;;-0.80;99.10;;;;;;5033877;28;20741;-41
2021/03/07 05:10:55;;;;;;;13.38;9.57;;;-0.80;99.20;;;;;;5033871;28;20304;-41
2021/03/07 05:13:23;;;;;;;10.88;8.95;;;-0.80;99.30;;;;;;5034059;28;20247;-41
2021/03/07 05:15:50;;;;;;;12.85;11.45;;;-0.80;99.30;;;;;;5033984;28;20400;-41
2021/03/07 05:18:18;;;;;;;16.38;12.90;;;-0.80;99.20;;;;;;5033760;28;20578;-41
2021/03/07 05:20:45;;;;;;;23.85;14.57;;;-0.80;99.30;;;;;;5034176;28;20574;-41
2021/03/07 05:23:12;;;;;;;23.00;15.20;;;-0.80;99.30;;;;;;5034154;28;20303;-41
2021/03/07 05:25:40;;;;;;;21.52;15.15;;;-0.80;99.40;;;;;;5033812;28;20236;-41
2021/03/07 05:28:07;;;;;;;22.55;13.05;;;-0.90;99.40;;;;;;5033871;28;20295;-41
2021/03/07 05:30:37;;;;;;;15.82;12.23;;;-0.90;99.50;;;;;;5033747;28;20517;-42
2021/03/07 05:33:04;;;;;;;15.43;11.57;;;-0.90;99.50;;;;;;5033633;28;20300;-42
2021/03/07 05:35:31;;;;;;;16.00;11.60;;;-0.80;99.40;;;;;;5033675;28;20232;-40
2021/03/07 05:37:58;;;;;;;15.18;10.98;;;-0.80;99.40;;;;;;5033810;28;20303;-41
2021/03/07 05:40:26;;;;;;;10.93;9.18;;;-0.80;99.40;;;;;;5033324;28;20213;-41
2021/03/07 05:42:53;;;;;;;13.20;10.07;;;-0.70;99.40;;;;;;5033735;28;20570;-40
2021/03/07 05:45:24;;;;;;;13.18;10.23;;;-0.70;99.30;;;;;;5033438;28;20592;-41
2021/03/07 05:47:53;;;;;;;12.43;9.63;;;-0.60;99.40;;;;;;5033449;28;20208;-40
2021/03/07 05:50:22;;;;;;;13.10;9.32;;;-0.60;99.00;;;;;;5033406;28;20220;-41
2021/03/07 05:52:52;;;;;;;12.68;10.55;;;-0.60;99.00;;;;;;5033357;28;20216;-41
2021/03/07 05:55:20;;;;;;;13.30;10.55;;;-0.50;99.20;;;;;;5033236;28;20208;-41
2021/03/07 05:57:48;;;;;;;16.88;11.07;;;-0.40;98.90;;;;;;5033352;28;20311;-41
2021/03/07 06:00:16;;;;;;;13.73;12.23;;;-0.40;98.80;;;;;;5033141;28;20660;-40
2021/03/07 06:02:43;;;;;;;16.88;11.68;;;-0.50;98.80;;;;;;5033045;28;20890;-44
2021/03/07 06:05:13;;;;;;;13.52;10.73;;;-0.60;98.90;;;;;;5033207;28;20229;-42
2021/03/07 06:07:41;;;;;;;10.98;9.48;;;-0.70;99.00;;;;;;5033250;28;20583;-44
2021/03/07 06:10:13;;;;;;;18.42;14.45;;;-0.70;99.10;;;;;;5033080;28;20299;-43
2021/03/07 06:12:41;;;;;;;14.50;12.23;;;-0.70;99.20;;;;;;5033025;28;20719;-44
2021/03/07 06:15:10;;;;;;;11.10;9.82;;;-0.70;99.20;;;;;;5033163;28;20239;-43
2021/03/07 06:17:42;;;;;;;13.02;11.38;;;-0.70;99.20;;;;;;5033389;28;20240;-42
2021/03/07 06:20:12;;;;;;;12.63;10.73;;;-0.60;99.20;;;;;;5033814;28;20243;-45
2021/03/07 06:22:50;;;;;;;11.68;10.15;;;-0.50;99.10;;;;;;5033148;28;20614;-45
2021/03/07 06:25:17;;;;;;;13.87;11.00;;;-0.50;99.00;;;;;;5033248;28;20324;-43
2021/03/07 06:27:44;;;;;;;11.68;9.02;;;-0.30;98.90;;;;;;5032846;28;20244;-43
2021/03/07 06:30:13;;;;;;;11.77;9.40;;;-0.30;98.80;;;;;;5032950;28;20561;-44
2021/03/07 06:32:42;;;;;;;11.93;9.55;;;-0.30;98.70;;;;;;5032872;28;20244;-43
2021/03/07 06:35:13;;;;;;;10.88;9.75;;;-0.30;98.70;;;;;;5032553;28;20259;-41
2021/03/07 06:37:55;;;;;;;9.50;8.50;;;-0.30;98.80;;;;;;5032652;28;20211;-42
2021/03/07 06:40:27;;;;;;;14.25;10.57;;;-0.20;98.70;;;;;;5032608;28;20618;-42
2021/03/07 06:42:55;;;;;;;39.95;30.65;;;-0.10;98.60;;;;;;5032482;28;20667;-41
2021/03/07 06:45:23;;;;;;;19.45;16.77;;;0.00;98.80;;;;;;5032065;28;20334;-41
2021/03/07 06:47:56;;;;;;;16.23;13.65;;;0.00;98.50;;;;;;5032093;28;20244;-42
2021/03/07 06:50:25;;;;;;;19.38;13.60;;;0.10;98.50;;;;;;5032429;28;20702;-41
2021/03/07 06:52:53;;;;;;;12.63;10.60;;;0.30;98.40;;;;;;5032285;28;20557;-41
2021/03/07 06:55:23;;;;;;;14.05;11.68;;;0.40;98.30;;;;;;5032140;28;20251;-41
2021/03/07 06:57:50;;;;;;;12.48;10.80;;;0.40;98.30;;;;;;5032290;28;20292;-41
2021/03/07 07:00:34;;;;;;;11.73;9.57;;;0.50;98.20;;;;;;5032131;28;20475;-42
2021/03/07 07:03:07;;;;;;;12.27;10.38;;;0.60;98.10;;;;;;5031983;28;20276;-42
2021/03/07 07:05:37;;;;;;;13.98;11.63;;;0.70;98.00;;;;;;5031928;28;20718;-42
2021/03/07 07:08:04;;;;;;;13.02;11.57;;;0.80;97.90;;;;;;5031850;28;20248;-42
2021/03/07 07:10:58;;;;;;;12.67;10.83;;;0.90;97.80;;;;;;5032103;28;20529;-42
2021/03/07 07:13:27;;;;;;;10.63;9.53;;;1.00;97.70;;;;;;5032082;28;20456;-41
2021/03/07 07:16:02;;;;;;;12.07;9.80;;;1.10;97.60;;;;;;5032194;28;20299;-41
2021/03/07 07:18:32;;;;;;;15.05;11.23;;;1.20;97.50;;;;;;5032201;28;20230;-41
2021/03/07 07:21:01;;;;;;;10.75;9.10;;;1.20;97.40;;;;;;5031809;28;20307;-41
2021/03/07 07:23:28;;;;;;;11.30;9.70;;;1.30;97.30;;;;;;5031866;28;20334;-42
2021/03/07 07:25:56;;;;;;;11.00;9.48;;;1.40;97.20;;;;;;5031776;28;20230;-44
2021/03/07 07:28:24;;;;;;;11.30;9.93;;;1.40;97.20;;;;;;5031652;28;20299;-42
2021/03/07 07:30:53;;;;;;;11.70;10.50;;;1.40;97.30;;;;;;5031712;28;20243;-42
2021/03/07 07:33:32;;;;;;;14.30;11.55;;;1.60;97.20;;;;;;5031740;28;20236;-44
2021/03/07 07:36:01;;;;;;;16.63;11.80;;;1.70;97.00;;;;;;5032009;28;20266;-41
2021/03/07 07:38:30;;;;;;;12.93;10.35;;;1.70;96.90;;;;;;5031956;28;20266;-40
2021/03/07 07:40:58;;;;;;;12.13;9.90;;;1.80;96.90;;;;;;5031805;28;20271;-42
2021/03/07 07:43:26;;;;;;;11.95;10.38;;;1.80;96.90;;;;;;5031745;28;20244;-41
2021/03/07 07:46:12;;;;;;;13.48;10.90;;;1.80;96.90;;;;;;5031689;28;20228;-41
2021/03/07 07:48:40;;;;;;;11.23;9.60;;;1.80;97.00;;;;;;5031779;28;20235;-42
2021/03/07 07:51:31;;;;;;;11.43;10.23;;;1.80;97.00;;;;;;5031681;28;20209;-43
2021/03/07 07:53:59;;;;;;;11.70;10.00;;;1.90;97.00;;;;;;5031708;28;20248;-42
2021/03/07 07:56:37;;;;;;;29.13;19.80;;;2.00;96.90;;;;;;5031906;28;20296;-41
2021/03/07 07:59:05;;;;;;;10.70;9.60;;;2.10;96.70;;;;;;5034183;28;20299;-44
2021/03/07 08:01:55;;;;;;;11.60;9.93;;;2.20;96.40;;;;;;5035029;28;20524;-44
2021/03/07 08:04:39;;;;;;;11.93;9.73;;;2.30;96.20;;;;;;5035126;28;20663;-43
2021/03/07 08:07:10;;;;;;;10.65;9.23;;;2.50;96.20;;;;;;5035291;28;20267;-43
2021/03/07 08:09:45;;;;;;;11.13;9.85;;;2.60;96.10;;;;;;5035426;28;20213;-43
2021/03/07 08:12:50;;;;;;;10.23;9.18;;;2.60;96.00;;;;;;5035344;28;20216;-43
2021/03/07 08:15:46;;;;;;;10.43;9.35;;;2.70;95.80;;;;;;5035135;28;20201;-44
2021/03/07 08:18:16;;;;;;;11.55;9.45;;;2.90;95.70;;;;;;5035156;28;20212;-43
2021/03/07 08:21:00;;;;;;;11.57;9.48;;;2.90;95.60;;;;;;5035088;28;20223;-43
2021/03/07 08:23:28;;;;;;;10.93;9.82;;;2.90;95.50;;;;;;5035006;28;20208;-41
2021/03/07 08:26:01;;;;;;;11.77;10.13;;;2.90;95.50;;;;;;5034989;28;20230;-42
2021/03/07 08:28:44;;;;;;;10.93;9.82;;;3.10;95.50;;;;;;5035285;28;20216;-41
2021/03/07 08:31:36;;;;;;;11.57;10.40;;;3.20;95.20;;;;;;5035049;28;20574;-42
2021/03/07 08:34:21;;;;;;;11.35;10.10;;;3.30;95.10;;;;;;5034987;28;20209;-42
2021/03/07 08:36:57;;;;;;;10.88;9.77;;;3.40;95.00;;;;;;5035163;28;20570;-40
2021/03/07 08:39:27;;;;;;;12.00;10.80;;;3.50;94.90;;;;;;5034792;28;20679;-43
2021/03/07 08:42:02;;;;;;;11.18;9.07;;;3.60;94.90;;;;;;5034968;28;20234;-43
2021/03/07 08:44:30;;;;;;;12.02;10.40;;;3.60;94.70;;;;;;5034524;28;20666;-43
2021/03/07 08:46:58;;;;;;;11.23;9.40;;;3.60;94.70;;;;;;5035150;28;20220;-45
2021/03/07 08:49:29;;;;;;;13.30;10.68;;;3.70;94.80;;;;;;5034822;28;20592;-44
2021/03/07 08:52:02;;;;;;;13.88;10.73;;;3.70;94.70;;;;;;5034786;28;20300;-43
2021/03/07 08:54:32;;;;;;;15.30;11.30;;;3.60;94.70;;;;;;5035065;28;20215;-44
2021/03/07 08:57:05;;;;;;;11.88;10.55;;;3.80;94.70;;;;;;5034480;28;20219;-44
2021/03/07 08:59:34;;;;;;;11.45;10.10;;;3.90;94.60;;;;;;5034917;28;20308;-45
2021/03/07 09:02:04;;;;;;;11.75;10.52;;;4.10;94.50;;;;;;5034274;28;20236;-45
2021/03/07 09:04:36;;;;;;;12.38;10.63;;;4.10;94.20;;;;;;5034221;28;20204;-43
2021/03/07 09:07:07;;;;;;;12.98;11.60;;;4.30;94.20;;;;;;5034249;28;20217;-44
2021/03/07 09:09:41;;;;;;;14.63;12.50;;;4.30;94.10;;;;;;5033879;28;20213;-46
2021/03/07 09:12:09;;;;;;;14.15;12.75;;;4.40;94.20;;;;;;5034372;28;20219;-43
2021/03/07 09:14:38;;;;;;;15.85;13.48;;;4.40;94.30;;;;;;5034046;28;20726;-43
2021/03/07 09:17:07;;;;;;;12.98;11.65;;;4.50;94.40;;;;;;5033877;28;20667;-44
2021/03/07 09:19:37;;;;;;;14.25;12.68;;;4.60;94.40;;;;;;5033824;28;20264;-46
2021/03/07 09:22:21;;;;;;;13.00;11.60;;;4.70;94.50;;;;;;5033867;28;20307;-44
2021/03/07 09:25:01;;;;;;;13.70;12.30;;;4.80;94.60;;;;;;5033748;28;20312;-45
2021/03/07 09:27:30;;;;;;;14.20;12.10;;;5.00;94.60;;;;;;5034153;28;20212;-43
2021/03/07 09:30:00;;;;;;;19.75;15.30;;;5.20;94.30;;;;;;5033959;28;20304;-44
2021/03/07 09:32:29;;;;;;;13.93;11.93;;;5.30;94.20;;;;;;5033667;28;20215;-44
2021/03/07 09:35:00;;;;;;;20.23;15.43;;;5.40;94.30;;;;;;5034132;28;20208;-46
2021/03/07 09:37:28;;;;;;;14.60;13.10;;;5.30;94.40;;;;;;5033760;28;20304;-43
2021/03/07 09:39:56;;;;;;;15.18;13.57;;;5.40;94.40;;;;;;5033744;28;20292;-42
2021/03/07 09:42:23;;;;;;;18.08;12.80;;;5.40;94.40;;;;;;5033670;28;20278;-42
2021/03/07 09:44:50;;;;;;;12.68;11.40;;;5.50;94.40;;;;;;5033545;28;20264;-45
2021/03/07 09:47:24;;;;;;;14.00;12.57;;;5.60;94.20;;;;;;5033701;28;20671;-44
2021/03/07 09:49:52;;;;;;;13.73;12.32;;;5.80;94.10;;;;;;5033612;28;20266;-41
2021/03/07 09:52:19;;;;;;;20.27;16.90;;;5.90;94.00;;;;;;5033346;28;20239;-41
2021/03/07 09:54:53;;;;;;;17.52;15.63;;;6.00;94.00;;;;;;5033369;28;20205;-42
2021/03/07 09:57:41;;;;;;;16.60;13.85;;;5.90;94.10;;;;;;5032987;28;20209;-41
2021/03/07 10:00:09;;;;;;;15.57;13.13;;;5.90;94.20;;;;;;5033359;28;20255;-41
2021/03/07 10:02:37;;;;;;;20.65;13.93;;;6.00;94.30;;;;;;5033188;28;20236;-41
2021/03/07 10:05:13;;;;;;;15.77;14.07;;;6.00;94.50;;;;;;5033105;28;20640;-41
2021/03/07 10:07:40;;;;;;;17.10;15.05;;;6.00;94.60;;;;;;5032753;28;20274;-42
2021/03/07 10:10:11;;;;;;;18.42;14.50;;;6.00;94.60;;;;;;5032930;28;20323;-41
2021/03/07 10:12:44;;;;;;;19.65;14.43;;;6.20;94.60;;;;;;5032733;28;20312;-40
2021/03/07 10:15:13;;;;;;;21.45;19.17;;;6.40;94.60;;;;;;5032742;28;20600;-40
2021/03/07 10:17:42;;;;;;;17.90;15.40;;;6.50;94.50;;;;;;5032950;28;20686;-41
2021/03/07 10:20:12;;;;;;;18.58;16.63;;;6.50;94.50;;;;;;5032424;28;20649;-41
2021/03/07 10:22:41;;;;;;;40.15;25.83;;;6.60;94.50;;;;;;5031879;28;20213;-41
2021/03/07 10:25:19;;;;;;;19.13;15.13;;;6.60;94.50;;;;;;5032606;28;20232;-42
2021/03/07 10:27:57;;;;;;;20.10;17.35;;;6.70;94.50;;;;;;5032558;28;20208;-42
2021/03/07 10:30:29;;;;;;;19.73;15.95;;;6.80;94.60;;;;;;5032241;28;20295;-42
2021/03/07 10:33:16;;;;;;;19.02;17.02;;;6.90;94.50;;;;;;5031712;28;20239;-41
2021/03/07 10:36:04;;;;;;;19.35;16.55;;;7.10;94.30;;;;;;5032098;28;20208;-40
2021/03/07 10:38:33;;;;;;;19.60;17.40;;;7.30;94.60;;;;;;5031888;28;20216;-42
2021/03/07 10:41:15;;;;;;;19.10;16.27;;;7.30;94.50;;;;;;5031897;28;20227;-42
2021/03/07 10:43:46;;;;;;;18.23;16.25;;;7.40;94.40;;;;;;5032152;28;20220;-43
2021/03/07 10:46:24;;;;;;;18.40;16.50;;;7.50;94.40;;;;;;5032280;28;20315;-46
2021/03/07 10:48:54;;;;;;;25.33;20.50;;;7.70;94.40;;;;;;5031980;28;20212;-41
2021/03/07 10:51:21;;;;;;;19.90;17.77;;;7.80;94.30;;;;;;5032048;28;20291;-42
2021/03/07 10:53:48;;;;;;;31.58;23.60;;;8.00;94.10;;;;;;5032193;28;20212;-41
2021/03/07 10:56:15;;;;;;;19.08;17.15;;;8.10;93.90;;;;;;5031854;28;20212;-41
2021/03/07 10:58:42;;;;;;;21.52;17.40;;;8.30;93.80;;;;;;5031778;28;20319;-40
2021/03/07 11:01:15;;;;;;;18.45;16.35;;;8.50;93.60;;;;;;5031927;28;20291;-44
2021/03/07 11:03:42;;;;;;;18.00;15.18;;;8.70;93.20;;;;;;5031504;28;20213;-39
2021/03/07 11:06:10;;;;;;;16.95;13.63;;;8.80;92.90;;;;;;5031227;28;20232;-41
2021/03/07 11:08:37;;;;;;;26.17;18.08;;;8.80;92.60;;;;;;5031589;28;20261;-44
2021/03/07 11:11:05;;;;;;;22.40;15.60;;;8.70;92.60;;;;;;5031341;28;20604;-41
2021/03/07 11:13:33;;;;;;;16.27;14.63;;;8.50;92.80;;;;;;5031510;28;20209;-41
2021/03/07 11:16:00;;;;;;;16.30;14.60;;;8.50;92.90;;;;;;5031625;28;20204;-41
2021/03/07 11:18:28;;;;;;;18.02;16.13;;;8.40;92.90;;;;;;5031371;28;20205;-41
2021/03/07 11:20:55;;;;;;;16.33;14.63;;;8.30;93.10;;;;;;5031346;28;20779;-43
2021/03/07 11:23:23;;;;;;;16.58;14.55;;;8.30;93.10;;;;;;5031420;28;20271;-41
2021/03/07 11:25:50;;;;;;;16.83;15.13;;;8.30;93.20;;;;;;5031424;28;20236;-42
2021/03/07 11:28:17;;;;;;;20.85;17.95;;;8.30;93.10;;;;;;5031375;28;20217;-40
2021/03/07 11:30:44;;;;;;;21.20;16.73;;;8.30;93.10;;;;;;5031409;28;20300;-41
2021/03/07 11:33:12;;;;;;;18.73;16.73;;;8.40;93.10;;;;;;5034001;28;20574;-42
2021/03/07 11:35:40;;;;;;;21.73;19.42;;;8.50;92.90;;;;;;5035169;28;20261;-41
2021/03/07 11:38:07;;;;;;;17.63;14.75;;;8.60;92.80;;;;;;5035441;28;20251;-41
2021/03/07 11:40:34;;;;;;;20.15;16.38;;;8.70;92.60;;;;;;5035356;28;20205;-41
2021/03/07 11:43:01;;;;;;;25.25;21.08;;;8.90;92.30;;;;;;5035510;28;20208;-41
2021/03/07 11:45:27;;;;;;;19.50;17.50;;;9.00;92.10;;;;;;5034993;28;20650;-41
2021/03/07 11:47:54;;;;;;;17.48;15.75;;;8.90;92.20;;;;;;5035131;28;20295;-42
2021/03/07 11:50:22;;;;;;;29.02;23.65;;;8.80;92.00;;;;;;5035420;28;20350;-40
2021/03/07 11:52:50;;;;;;;18.55;16.65;;;8.70;92.00;;;;;;5034853;28;20216;-41
2021/03/07 11:55:17;;;;;;;20.48;18.30;;;8.70;92.10;;;;;;5035404;28;20236;-41
2021/03/07 11:57:44;;;;;;;19.27;16.75;;;8.80;92.10;;;;;;5035334;28;20258;-41
2021/03/07 12:00:12;;;;;;;18.83;16.27;;;8.90;92.00;;;;;;5034868;28;20212;-41
2021/03/07 12:02:39;;;;;;;23.30;18.67;;;8.80;91.90;;;;;;5034914;28;20247;-41
2021/03/07 12:05:08;;;;;;;18.80;15.45;;;8.90;91.90;;;;;;5035041;28;20239;-41
2021/03/07 12:07:35;;;;;;;17.45;15.55;;;9.00;91.80;;;;;;5034879;28;20571;-42
2021/03/07 12:10:04;;;;;;;17.17;14.88;;;9.30;91.70;;;;;;5034890;28;20216;-42
2021/03/07 12:12:31;;;;;;;17.27;14.50;;;9.40;91.30;;;;;;5034813;28;20303;-41
2021/03/07 12:14:58;;;;;;;17.15;15.40;;;9.50;91.20;;;;;;5034694;28;20299;-41
2021/03/07 12:17:25;;;;;;;17.02;15.27;;;9.50;91.30;;;;;;5034684;28;20292;-41
2021/03/07 12:20:03;;;;;;;17.52;15.52;;;9.40;91.30;;;;;;5034666;28;20671;-41
2021/03/07 12:22:30;;;;;;;17.60;15.80;;;9.50;91.30;;;;;;5034434;28;20227;-42
2021/03/07 12:24:57;;;;;;;16.85;14.70;;;9.60;91.20;;;;;;5034402;28;20318;-41
2021/03/07 12:27:25;;;;;;;17.30;15.55;;;9.60;91.10;;;;;;5034379;28;20689;-40
2021/03/07 12:29:52;;;;;;;16.77;15.07;;;9.70;90.90;;;;;;5034194;28;20300;-40
2021/03/07 12:32:19;;;;;;;17.70;15.80;;;9.70;90.90;;;;;;5034451;28;20208;-41
2021/03/07 12:34:47;;;;;;;16.30;14.68;;;9.80;90.90;;;;;;5034098;28;20224;-40
2021/03/07 12:37:14;;;;;;;16.73;14.95;;;9.70;90.90;;;;;;5034191;28;20232;-41
2021/03/07 12:39:41;;;;;;;15.95;14.35;;;9.60;91.00;;;;;;5033940;28;20209;-40
2021/03/07 12:42:08;;;;;;;17.17;15.38;;;9.50;91.20;;;;;;5033853;28;20205;-40
2021/03/07 12:44:39;;;;;;;17.05;14.93;;;9.60;91.30;;;;;;5033180;28;20291;-41
2021/03/07 12:47:06;;;;;;;18.13;16.23;;;9.60;91.10;;;;;;5034257;28;20703;-40
2021/03/07 12:49:34;;;;;;;19.45;16.75;;;9.60;91.10;;;;;;5034514;28;20303;-41